Terminal Aerodrome Forecast
Issued by NWS

Home | Current Version | Previous Version | Graphics & Text | Print | Product List | Glossary On
Versions: 1 2 3 4 5 6 7 8 9 10 11 12 13 14 15 16 17 18 19 20 21 22
359
FTUS43 KABR 151438 AAA
TAFATY
TAF AMD
KATY 151438Z 1515/1612 34017KT P6SM SCT015
     FM151600 33017G24KT P6SM BKN060
     FM160200 34015G23KT P6SM BKN020
     FM160700 34012KT P6SM SCT050=

USA.gov is the U.S. government's official web portal to all federal, state and local government web resources and services.